sensor_id;sensor_type;location;lat;lon;timestamp;temperature;humidity
17571;DHT22;8903;52.220;20.978;2024-03-02T00:00:09;8.10;99.90
17571;DHT22;8903;52.220;20.978;2024-03-02T00:02:44;8.10;99.90
17571;DHT22;8903;52.220;20.978;2024-03-02T00:05:18;8.10;99.90
17571;DHT22;8903;52.220;20.978;2024-03-02T00:07:54;8.00;99.90
17571;DHT22;8903;52.220;20.978;2024-03-02T00:10:36;8.00;99.90
17571;DHT22;8903;52.220;20.978;2024-03-02T00:13:05;7.90;99.90
17571;DHT22;8903;52.220;20.978;2024-03-02T00:15:53;8.00;99.90
17571;DHT22;8903;52.220;20.978;2024-03-02T00:18:32;7.90;99.90
17571;DHT22;8903;52.220;20.978;2024-03-02T00:20:59;7.90;99.90
17571;DHT22;8903;52.220;20.978;2024-03-02T00:23:30;7.90;99.90
17571;DHT22;8903;52.220;20.978;2024-03-02T00:25:56;7.90;99.90
17571;DHT22;8903;52.220;20.978;2024-03-02T00:28:24;7.90;99.90
17571;DHT22;8903;52.220;20.978;2024-03-02T00:31:03;7.80;99.90
17571;DHT22;8903;52.220;20.978;2024-03-02T00:33:36;7.80;99.90
17571;DHT22;8903;52.220;20.978;2024-03-02T00:36:03;7.80;99.90
17571;DHT22;8903;52.220;20.978;2024-03-02T00:38:30;7.80;99.90
17571;DHT22;8903;52.220;20.978;2024-03-02T00:41:06;7.80;99.90
17571;DHT22;8903;52.220;20.978;2024-03-02T00:43:57;7.70;99.90
17571;DHT22;8903;52.220;20.978;2024-03-02T00:46:23;7.70;99.90
17571;DHT22;8903;52.220;20.978;2024-03-02T00:48:54;7.70;99.90
17571;DHT22;8903;52.220;20.978;2024-03-02T00:51:22;7.70;99.90
17571;DHT22;8903;52.220;20.978;2024-03-02T00:53:49;7.70;99.90
17571;DHT22;8903;52.220;20.978;2024-03-02T00:56:16;7.70;99.90
17571;DHT22;8903;52.220;20.978;2024-03-02T00:58:42;7.70;99.90
17571;DHT22;8903;52.220;20.978;2024-03-02T01:01:08;7.70;99.90
17571;DHT22;8903;52.220;20.978;2024-03-02T01:03:35;7.80;99.90
17571;DHT22;8903;52.220;20.978;2024-03-02T01:06:01;7.80;99.90
17571;DHT22;8903;52.220;20.978;2024-03-02T01:08:26;7.80;99.90
17571;DHT22;8903;52.220;20.978;2024-03-02T01:10:52;7.70;99.90
17571;DHT22;8903;52.220;20.978;2024-03-02T01:13:18;7.70;99.90
17571;DHT22;8903;52.220;20.978;2024-03-02T01:15:44;7.70;99.90
17571;DHT22;8903;52.220;20.978;2024-03-02T01:18:09;7.70;99.90
17571;DHT22;8903;52.220;20.978;2024-03-02T01:20:35;7.70;99.90
17571;DHT22;8903;52.220;20.978;2024-03-02T01:23:01;7.70;99.90
17571;DHT22;8903;52.220;20.978;2024-03-02T01:25:27;7.60;99.90
17571;DHT22;8903;52.220;20.978;2024-03-02T01:27:53;7.60;99.90
17571;DHT22;8903;52.220;20.978;2024-03-02T01:30:18;7.60;99.90
17571;DHT22;8903;52.220;20.978;2024-03-02T01:32:44;7.60;99.90
17571;DHT22;8903;52.220;20.978;2024-03-02T01:35:10;7.50;99.90
17571;DHT22;8903;52.220;20.978;2024-03-02T01:37:35;7.50;99.90
17571;DHT22;8903;52.220;20.978;2024-03-02T01:40:01;7.50;99.90
17571;DHT22;8903;52.220;20.978;2024-03-02T01:42:28;7.50;99.90
17571;DHT22;8903;52.220;20.978;2024-03-02T01:44:54;7.50;99.90
17571;DHT22;8903;52.220;20.978;2024-03-02T01:47:20;7.50;99.90
17571;DHT22;8903;52.220;20.978;2024-03-02T01:49:46;7.40;99.90
17571;DHT22;8903;52.220;20.978;2024-03-02T01:52:12;7.40;99.90
17571;DHT22;8903;52.220;20.978;2024-03-02T01:54:38;7.50;99.90
17571;DHT22;8903;52.220;20.978;2024-03-02T01:57:03;7.40;99.90
17571;DHT22;8903;52.220;20.978;2024-03-02T01:59:29;7.40;99.90
17571;DHT22;8903;52.220;20.978;2024-03-02T02:01:55;7.40;99.90
17571;DHT22;8903;52.220;20.978;2024-03-02T02:04:21;7.30;99.90
17571;DHT22;8903;52.220;20.978;2024-03-02T02:06:52;7.30;99.90
17571;DHT22;8903;52.220;20.978;2024-03-02T02:09:18;7.20;99.90
17571;DHT22;8903;52.220;20.978;2024-03-02T02:11:44;7.30;99.90
17571;DHT22;8903;52.220;20.978;2024-03-02T02:14:10;7.30;99.90
17571;DHT22;8903;52.220;20.978;2024-03-02T02:16:36;7.30;99.90
17571;DHT22;8903;52.220;20.978;2024-03-02T02:19:02;7.30;99.90
17571;DHT22;8903;52.220;20.978;2024-03-02T02:21:28;7.30;99.90
17571;DHT22;8903;52.220;20.978;2024-03-02T02:23:54;7.30;99.90
17571;DHT22;8903;52.220;20.978;2024-03-02T02:26:20;7.20;99.90
17571;DHT22;8903;52.220;20.978;2024-03-02T02:28:45;7.30;99.90
17571;DHT22;8903;52.220;20.978;2024-03-02T02:31:16;7.20;99.90
17571;DHT22;8903;52.220;20.978;2024-03-02T02:33:43;7.20;99.90
17571;DHT22;8903;52.220;20.978;2024-03-02T02:36:08;7.20;99.90
17571;DHT22;8903;52.220;20.978;2024-03-02T02:38:43;7.20;99.90
17571;DHT22;8903;52.220;20.978;2024-03-02T02:41:09;7.20;99.90
17571;DHT22;8903;52.220;20.978;2024-03-02T02:43:35;7.20;99.90
17571;DHT22;8903;52.220;20.978;2024-03-02T02:46:01;7.20;99.90
17571;DHT22;8903;52.220;20.978;2024-03-02T02:48:27;7.20;99.90
17571;DHT22;8903;52.220;20.978;2024-03-02T02:50:52;7.20;99.90
17571;DHT22;8903;52.220;20.978;2024-03-02T02:53:18;7.10;99.90
17571;DHT22;8903;52.220;20.978;2024-03-02T02:55:44;7.10;99.90
17571;DHT22;8903;52.220;20.978;2024-03-02T02:58:10;7.10;99.90
17571;DHT22;8903;52.220;20.978;2024-03-02T03:00:36;7.00;99.90
17571;DHT22;8903;52.220;20.978;2024-03-02T03:03:02;7.00;99.90
17571;DHT22;8903;52.220;20.978;2024-03-02T03:05:27;7.00;99.90
17571;DHT22;8903;52.220;20.978;2024-03-02T03:07:53;7.00;99.90
17571;DHT22;8903;52.220;20.978;2024-03-02T03:10:19;7.00;99.90
17571;DHT22;8903;52.220;20.978;2024-03-02T03:12:47;7.00;99.90
17571;DHT22;8903;52.220;20.978;2024-03-02T03:15:13;6.90;99.90
17571;DHT22;8903;52.220;20.978;2024-03-02T03:17:40;6.90;99.90
17571;DHT22;8903;52.220;20.978;2024-03-02T03:20:06;6.90;99.90
17571;DHT22;8903;52.220;20.978;2024-03-02T03:22:36;6.90;99.90
17571;DHT22;8903;52.220;20.978;2024-03-02T03:25:01;6.90;99.90
17571;DHT22;8903;52.220;20.978;2024-03-02T03:27:29;6.80;99.90
17571;DHT22;8903;52.220;20.978;2024-03-02T03:29:55;6.80;99.90
17571;DHT22;8903;52.220;20.978;2024-03-02T03:32:21;6.90;99.90
17571;DHT22;8903;52.220;20.978;2024-03-02T03:34:47;6.80;99.90
17571;DHT22;8903;52.220;20.978;2024-03-02T03:37:14;6.80;99.90
17571;DHT22;8903;52.220;20.978;2024-03-02T03:39:41;6.80;99.90
17571;DHT22;8903;52.220;20.978;2024-03-02T03:42:06;6.70;99.90
17571;DHT22;8903;52.220;20.978;2024-03-02T03:44:32;6.70;99.90
17571;DHT22;8903;52.220;20.978;2024-03-02T03:46:59;6.70;99.90
17571;DHT22;8903;52.220;20.978;2024-03-02T03:49:26;6.70;99.90
17571;DHT22;8903;52.220;20.978;2024-03-02T03:51:52;6.60;99.90
17571;DHT22;8903;52.220;20.978;2024-03-02T03:54:18;6.70;99.90
17571;DHT22;8903;52.220;20.978;2024-03-02T03:56:44;6.70;99.90
17571;DHT22;8903;52.220;20.978;2024-03-02T03:59:09;6.70;99.90
17571;DHT22;8903;52.220;20.978;2024-03-02T04:01:35;6.70;99.90
17571;DHT22;8903;52.220;20.978;2024-03-02T04:04:01;6.70;99.90
17571;DHT22;8903;52.220;20.978;2024-03-02T04:06:29;6.70;99.90
17571;DHT22;8903;52.220;20.978;2024-03-02T04:08:55;6.60;99.90
17571;DHT22;8903;52.220;20.978;2024-03-02T04:11:21;6.70;99.90
17571;DHT22;8903;52.220;20.978;2024-03-02T04:13:47;6.60;99.90
17571;DHT22;8903;52.220;20.978;2024-03-02T04:16:13;6.60;99.90
17571;DHT22;8903;52.220;20.978;2024-03-02T04:18:44;6.60;99.90
17571;DHT22;8903;52.220;20.978;2024-03-02T04:21:10;6.60;99.90
17571;DHT22;8903;52.220;20.978;2024-03-02T04:23:36;6.60;99.90
17571;DHT22;8903;52.220;20.978;2024-03-02T04:26:02;6.60;99.90
17571;DHT22;8903;52.220;20.978;2024-03-02T04:28:28;6.60;99.90
17571;DHT22;8903;52.220;20.978;2024-03-02T04:30:54;6.60;99.90
17571;DHT22;8903;52.220;20.978;2024-03-02T04:33:20;6.60;99.90
17571;DHT22;8903;52.220;20.978;2024-03-02T04:35:49;6.60;99.90
17571;DHT22;8903;52.220;20.978;2024-03-02T04:38:14;6.60;99.90
17571;DHT22;8903;52.220;20.978;2024-03-02T04:40:41;6.60;99.90
17571;DHT22;8903;52.220;20.978;2024-03-02T04:43:06;6.60;99.90
17571;DHT22;8903;52.220;20.978;2024-03-02T04:45:34;6.60;99.90
17571;DHT22;8903;52.220;20.978;2024-03-02T04:48:00;6.50;99.90
17571;DHT22;8903;52.220;20.978;2024-03-02T04:50:26;6.50;99.90
17571;DHT22;8903;52.220;20.978;2024-03-02T04:52:52;6.50;99.90
17571;DHT22;8903;52.220;20.978;2024-03-02T04:55:18;6.50;99.90
17571;DHT22;8903;52.220;20.978;2024-03-02T04:57:44;6.50;99.90
17571;DHT22;8903;52.220;20.978;2024-03-02T05:00:10;6.50;99.90
17571;DHT22;8903;52.220;20.978;2024-03-02T05:02:39;6.50;99.90
17571;DHT22;8903;52.220;20.978;2024-03-02T05:05:05;6.50;99.90
17571;DHT22;8903;52.220;20.978;2024-03-02T05:07:31;6.40;99.90
17571;DHT22;8903;52.220;20.978;2024-03-02T05:09:59;6.50;99.90
17571;DHT22;8903;52.220;20.978;2024-03-02T05:12:25;6.50;99.90
17571;DHT22;8903;52.220;20.978;2024-03-02T05:15:14;6.50;99.90
17571;DHT22;8903;52.220;20.978;2024-03-02T05:17:41;6.50;99.90
17571;DHT22;8903;52.220;20.978;2024-03-02T05:20:09;6.50;99.90
17571;DHT22;8903;52.220;20.978;2024-03-02T05:22:35;6.40;99.90
17571;DHT22;8903;52.220;20.978;2024-03-02T05:25:01;6.50;99.90
17571;DHT22;8903;52.220;20.978;2024-03-02T05:27:27;6.50;99.90
17571;DHT22;8903;52.220;20.978;2024-03-02T05:29:53;6.50;99.90
17571;DHT22;8903;52.220;20.978;2024-03-02T05:32:19;6.50;99.90
17571;DHT22;8903;52.220;20.978;2024-03-02T05:34:45;6.40;99.90
17571;DHT22;8903;52.220;20.978;2024-03-02T05:37:11;6.50;99.90
17571;DHT22;8903;52.220;20.978;2024-03-02T05:39:36;6.50;99.90
17571;DHT22;8903;52.220;20.978;2024-03-02T05:42:02;6.50;99.90
17571;DHT22;8903;52.220;20.978;2024-03-02T05:44:28;6.50;99.90
17571;DHT22;8903;52.220;20.978;2024-03-02T05:46:54;6.50;99.90
17571;DHT22;8903;52.220;20.978;2024-03-02T05:49:20;6.50;99.90
17571;DHT22;8903;52.220;20.978;2024-03-02T05:51:46;6.50;99.90
17571;DHT22;8903;52.220;20.978;2024-03-02T05:54:12;6.50;99.90
17571;DHT22;8903;52.220;20.978;2024-03-02T05:56:37;6.60;99.90
17571;DHT22;8903;52.220;20.978;2024-03-02T05:59:03;6.60;99.90
17571;DHT22;8903;52.220;20.978;2024-03-02T06:01:42;6.60;99.90
17571;DHT22;8903;52.220;20.978;2024-03-02T06:04:08;6.60;99.90
17571;DHT22;8903;52.220;20.978;2024-03-02T06:06:34;6.60;99.90
17571;DHT22;8903;52.220;20.978;2024-03-02T06:09:01;6.60;99.90
17571;DHT22;8903;52.220;20.978;2024-03-02T06:11:31;6.60;99.90
17571;DHT22;8903;52.220;20.978;2024-03-02T06:13:56;6.70;99.90
17571;DHT22;8903;52.220;20.978;2024-03-02T06:16:22;6.70;99.90
17571;DHT22;8903;52.220;20.978;2024-03-02T06:18:48;6.60;99.90
17571;DHT22;8903;52.220;20.978;2024-03-02T06:21:14;6.70;99.90
17571;DHT22;8903;52.220;20.978;2024-03-02T06:23:40;6.70;99.90
17571;DHT22;8903;52.220;20.978;2024-03-02T06:26:08;6.70;99.90
17571;DHT22;8903;52.220;20.978;2024-03-02T06:28:37;6.70;99.90
17571;DHT22;8903;52.220;20.978;2024-03-02T06:31:04;6.70;99.90
17571;DHT22;8903;52.220;20.978;2024-03-02T06:33:30;6.80;99.90
17571;DHT22;8903;52.220;20.978;2024-03-02T06:35:55;6.80;99.90
17571;DHT22;8903;52.220;20.978;2024-03-02T06:38:21;6.90;99.90
17571;DHT22;8903;52.220;20.978;2024-03-02T06:40:47;6.90;99.90
17571;DHT22;8903;52.220;20.978;2024-03-02T06:43:15;6.90;99.90
17571;DHT22;8903;52.220;20.978;2024-03-02T06:45:44;6.90;99.90
17571;DHT22;8903;52.220;20.978;2024-03-02T06:48:13;6.90;99.90
17571;DHT22;8903;52.220;20.978;2024-03-02T06:50:40;6.90;99.90
17571;DHT22;8903;52.220;20.978;2024-03-02T06:53:06;6.90;99.90
17571;DHT22;8903;52.220;20.978;2024-03-02T06:55:32;7.00;99.90
17571;DHT22;8903;52.220;20.978;2024-03-02T06:58:00;7.00;99.90
17571;DHT22;8903;52.220;20.978;2024-03-02T07:00:29;7.00;99.90
17571;DHT22;8903;52.220;20.978;2024-03-02T07:02:55;7.00;99.90
17571;DHT22;8903;52.220;20.978;2024-03-02T07:05:20;7.10;99.90
17571;DHT22;8903;52.220;20.978;2024-03-02T07:07:46;7.10;99.90
17571;DHT22;8903;52.220;20.978;2024-03-02T07:10:12;7.10;99.90
17571;DHT22;8903;52.220;20.978;2024-03-02T07:12:38;7.20;99.90
17571;DHT22;8903;52.220;20.978;2024-03-02T07:15:04;7.20;99.90
17571;DHT22;8903;52.220;20.978;2024-03-02T07:17:33;7.30;99.90
17571;DHT22;8903;52.220;20.978;2024-03-02T07:19:59;7.30;99.90
17571;DHT22;8903;52.220;20.978;2024-03-02T07:22:25;7.30;99.90
17571;DHT22;8903;52.220;20.978;2024-03-02T07:24:54;7.30;99.90
17571;DHT22;8903;52.220;20.978;2024-03-02T07:27:20;7.20;99.90
17571;DHT22;8903;52.220;20.978;2024-03-02T07:29:46;7.30;99.90
17571;DHT22;8903;52.220;20.978;2024-03-02T07:32:11;7.40;99.90
17571;DHT22;8903;52.220;20.978;2024-03-02T07:34:40;7.40;99.90
17571;DHT22;8903;52.220;20.978;2024-03-02T07:37:06;7.40;99.90
17571;DHT22;8903;52.220;20.978;2024-03-02T07:39:32;7.40;99.90
17571;DHT22;8903;52.220;20.978;2024-03-02T07:41:58;7.40;99.90
17571;DHT22;8903;52.220;20.978;2024-03-02T07:44:24;7.40;99.90
17571;DHT22;8903;52.220;20.978;2024-03-02T07:46:50;7.50;99.90
17571;DHT22;8903;52.220;20.978;2024-03-02T07:49:16;7.50;99.90
17571;DHT22;8903;52.220;20.978;2024-03-02T07:51:42;7.50;99.90
17571;DHT22;8903;52.220;20.978;2024-03-02T07:54:08;7.50;99.90
17571;DHT22;8903;52.220;20.978;2024-03-02T07:56:35;7.50;99.90
17571;DHT22;8903;52.220;20.978;2024-03-02T07:59:04;7.60;99.90
17571;DHT22;8903;52.220;20.978;2024-03-02T08:01:33;7.60;99.90
17571;DHT22;8903;52.220;20.978;2024-03-02T08:04:00;7.70;99.90
17571;DHT22;8903;52.220;20.978;2024-03-02T08:06:27;7.70;99.90
17571;DHT22;8903;52.220;20.978;2024-03-02T08:08:54;7.70;99.90
17571;DHT22;8903;52.220;20.978;2024-03-02T08:11:21;7.70;99.90
17571;DHT22;8903;52.220;20.978;2024-03-02T08:13:47;7.80;99.90
17571;DHT22;8903;52.220;20.978;2024-03-02T08:16:16;7.80;99.90
17571;DHT22;8903;52.220;20.978;2024-03-02T08:18:46;7.80;99.90
17571;DHT22;8903;52.220;20.978;2024-03-02T08:21:12;7.90;99.90
17571;DHT22;8903;52.220;20.978;2024-03-02T08:23:38;7.90;99.90
17571;DHT22;8903;52.220;20.978;2024-03-02T08:26:06;7.90;99.90
17571;DHT22;8903;52.220;20.978;2024-03-02T08:28:32;7.90;99.90
17571;DHT22;8903;52.220;20.978;2024-03-02T08:30:58;8.00;99.90
17571;DHT22;8903;52.220;20.978;2024-03-02T08:33:24;8.00;99.90
17571;DHT22;8903;52.220;20.978;2024-03-02T08:35:52;8.00;99.90
17571;DHT22;8903;52.220;20.978;2024-03-02T08:38:18;8.10;99.90
17571;DHT22;8903;52.220;20.978;2024-03-02T08:40:44;8.10;99.90
17571;DHT22;8903;52.220;20.978;2024-03-02T08:43:10;8.10;99.90
17571;DHT22;8903;52.220;20.978;2024-03-02T08:45:37;8.10;99.90
17571;DHT22;8903;52.220;20.978;2024-03-02T08:48:08;8.10;99.90
17571;DHT22;8903;52.220;20.978;2024-03-02T08:50:35;8.20;99.90
17571;DHT22;8903;52.220;20.978;2024-03-02T08:53:01;8.20;99.90
17571;DHT22;8903;52.220;20.978;2024-03-02T08:55:27;8.20;99.90
17571;DHT22;8903;52.220;20.978;2024-03-02T08:57:53;8.20;99.90
17571;DHT22;8903;52.220;20.978;2024-03-02T09:00:19;8.20;99.90
17571;DHT22;8903;52.220;20.978;2024-03-02T09:02:45;8.20;99.90
17571;DHT22;8903;52.220;20.978;2024-03-02T09:05:11;8.20;99.90
17571;DHT22;8903;52.220;20.978;2024-03-02T09:07:37;8.20;99.90
17571;DHT22;8903;52.220;20.978;2024-03-02T09:10:08;8.30;99.90
17571;DHT22;8903;52.220;20.978;2024-03-02T09:12:34;8.30;99.90
17571;DHT22;8903;52.220;20.978;2024-03-02T09:15:04;8.30;99.90
17571;DHT22;8903;52.220;20.978;2024-03-02T09:17:30;8.30;99.90
17571;DHT22;8903;52.220;20.978;2024-03-02T09:19:55;8.30;99.90
17571;DHT22;8903;52.220;20.978;2024-03-02T09:22:24;8.40;99.90
17571;DHT22;8903;52.220;20.978;2024-03-02T09:24:50;8.40;99.90
17571;DHT22;8903;52.220;20.978;2024-03-02T09:27:16;8.50;99.90
17571;DHT22;8903;52.220;20.978;2024-03-02T09:29:43;8.50;99.90
17571;DHT22;8903;52.220;20.978;2024-03-02T09:32:12;8.60;99.90
17571;DHT22;8903;52.220;20.978;2024-03-02T09:34:39;8.70;99.90
17571;DHT22;8903;52.220;20.978;2024-03-02T09:37:05;8.70;99.90
17571;DHT22;8903;52.220;20.978;2024-03-02T09:39:31;8.70;99.90
17571;DHT22;8903;52.220;20.978;2024-03-02T09:41:57;8.60;99.90
17571;DHT22;8903;52.220;20.978;2024-03-02T09:44:24;8.70;99.90
17571;DHT22;8903;52.220;20.978;2024-03-02T09:46:51;8.70;99.90
17571;DHT22;8903;52.220;20.978;2024-03-02T09:49:17;8.70;99.90
17571;DHT22;8903;52.220;20.978;2024-03-02T09:51:48;8.70;99.90
17571;DHT22;8903;52.220;20.978;2024-03-02T09:54:16;8.70;99.90
17571;DHT22;8903;52.220;20.978;2024-03-02T09:56:45;8.80;99.90
17571;DHT22;8903;52.220;20.978;2024-03-02T09:59:11;8.80;99.90
17571;DHT22;8903;52.220;20.978;2024-03-02T10:01:37;8.90;99.90
17571;DHT22;8903;52.220;20.978;2024-03-02T10:04:04;9.00;99.90
17571;DHT22;8903;52.220;20.978;2024-03-02T10:06:30;9.00;99.90
17571;DHT22;8903;52.220;20.978;2024-03-02T10:08:56;9.10;99.90
17571;DHT22;8903;52.220;20.978;2024-03-02T10:11:30;9.10;99.90
17571;DHT22;8903;52.220;20.978;2024-03-02T10:14:11;9.20;99.90
17571;DHT22;8903;52.220;20.978;2024-03-02T10:16:41;9.30;99.90
17571;DHT22;8903;52.220;20.978;2024-03-02T10:19:22;9.30;99.90
17571;DHT22;8903;52.220;20.978;2024-03-02T10:21:48;9.40;99.90
17571;DHT22;8903;52.220;20.978;2024-03-02T10:24:18;9.40;99.90
17571;DHT22;8903;52.220;20.978;2024-03-02T10:26:44;9.40;99.90
17571;DHT22;8903;52.220;20.978;2024-03-02T10:29:11;9.50;99.90
17571;DHT22;8903;52.220;20.978;2024-03-02T10:31:38;9.60;99.90
17571;DHT22;8903;52.220;20.978;2024-03-02T10:34:05;9.60;99.90
17571;DHT22;8903;52.220;20.978;2024-03-02T10:36:31;9.60;99.90
17571;DHT22;8903;52.220;20.978;2024-03-02T10:38:57;9.80;99.90
17571;DHT22;8903;52.220;20.978;2024-03-02T10:41:26;9.80;99.90
17571;DHT22;8903;52.220;20.978;2024-03-02T10:43:56;9.90;99.90
17571;DHT22;8903;52.220;20.978;2024-03-02T10:46:30;10.00;99.90
17571;DHT22;8903;52.220;20.978;2024-03-02T10:48:57;10.00;99.90
17571;DHT22;8903;52.220;20.978;2024-03-02T10:51:28;10.00;99.90
17571;DHT22;8903;52.220;20.978;2024-03-02T10:54:00;10.10;99.90
17571;DHT22;8903;52.220;20.978;2024-03-02T10:56:31;10.10;99.90
17571;DHT22;8903;52.220;20.978;2024-03-02T10:59:27;10.30;99.90
17571;DHT22;8903;52.220;20.978;2024-03-02T11:01:56;10.40;99.90
17571;DHT22;8903;52.220;20.978;2024-03-02T11:04:27;10.40;99.90
17571;DHT22;8903;52.220;20.978;2024-03-02T11:07:00;10.50;99.90
17571;DHT22;8903;52.220;20.978;2024-03-02T11:09:27;10.60;99.90
17571;DHT22;8903;52.220;20.978;2024-03-02T11:12:12;10.60;99.90
17571;DHT22;8903;52.220;20.978;2024-03-02T11:14:41;10.60;99.90
17571;DHT22;8903;52.220;20.978;2024-03-02T11:17:11;10.60;99.90
17571;DHT22;8903;52.220;20.978;2024-03-02T11:19:41;10.60;99.90
17571;DHT22;8903;52.220;20.978;2024-03-02T11:22:08;10.60;99.90
17571;DHT22;8903;52.220;20.978;2024-03-02T11:24:34;10.60;99.90
17571;DHT22;8903;52.220;20.978;2024-03-02T11:27:06;10.60;99.90
17571;DHT22;8903;52.220;20.978;2024-03-02T11:32:13;10.60;99.90
17571;DHT22;8903;52.220;20.978;2024-03-02T11:34:42;10.70;99.90
17571;DHT22;8903;52.220;20.978;2024-03-02T11:37:12;10.70;99.90
17571;DHT22;8903;52.220;20.978;2024-03-02T11:39:39;10.70;99.90
17571;DHT22;8903;52.220;20.978;2024-03-02T11:42:08;10.80;99.90
17571;DHT22;8903;52.220;20.978;2024-03-02T11:44:37;10.90;99.90
17571;DHT22;8903;52.220;20.978;2024-03-02T11:47:08;10.80;99.90
17571;DHT22;8903;52.220;20.978;2024-03-02T11:52:12;10.90;99.90
17571;DHT22;8903;52.220;20.978;2024-03-02T11:54:44;11.00;99.90
17571;DHT22;8903;52.220;20.978;2024-03-02T11:57:22;11.10;99.90
17571;DHT22;8903;52.220;20.978;2024-03-02T11:59:48;11.00;99.90
17571;DHT22;8903;52.220;20.978;2024-03-02T12:02:20;11.10;99.90
17571;DHT22;8903;52.220;20.978;2024-03-02T12:04:48;11.20;99.90
17571;DHT22;8903;52.220;20.978;2024-03-02T12:07:21;11.30;99.90
17571;DHT22;8903;52.220;20.978;2024-03-02T12:09:48;11.40;99.90
17571;DHT22;8903;52.220;20.978;2024-03-02T12:12:13;11.60;99.90
17571;DHT22;8903;52.220;20.978;2024-03-02T12:14:51;11.70;99.90
17571;DHT22;8903;52.220;20.978;2024-03-02T12:17:18;11.80;99.90
17571;DHT22;8903;52.220;20.978;2024-03-02T12:19:44;11.80;99.90
17571;DHT22;8903;52.220;20.978;2024-03-02T12:22:11;11.80;99.90
17571;DHT22;8903;52.220;20.978;2024-03-02T12:24:37;11.90;99.90
17571;DHT22;8903;52.220;20.978;2024-03-02T12:27:04;12.00;99.90
17571;DHT22;8903;52.220;20.978;2024-03-02T12:29:30;12.00;99.90
17571;DHT22;8903;52.220;20.978;2024-03-02T12:31:56;12.10;99.90
17571;DHT22;8903;52.220;20.978;2024-03-02T12:34:22;12.10;99.90
17571;DHT22;8903;52.220;20.978;2024-03-02T12:36:49;12.10;99.90
17571;DHT22;8903;52.220;20.978;2024-03-02T12:39:21;12.20;99.90
17571;DHT22;8903;52.220;20.978;2024-03-02T12:41:49;12.20;99.90
17571;DHT22;8903;52.220;20.978;2024-03-02T12:44:17;12.10;99.90
17571;DHT22;8903;52.220;20.978;2024-03-02T12:46:44;12.20;99.90
17571;DHT22;8903;52.220;20.978;2024-03-02T12:49:15;12.10;99.90
17571;DHT22;8903;52.220;20.978;2024-03-02T12:51:43;12.10;99.90
17571;DHT22;8903;52.220;20.978;2024-03-02T12:54:12;12.10;99.90
17571;DHT22;8903;52.220;20.978;2024-03-02T12:56:38;12.20;99.90
17571;DHT22;8903;52.220;20.978;2024-03-02T12:59:05;12.20;99.90
17571;DHT22;8903;52.220;20.978;2024-03-02T13:01:31;12.10;99.90
17571;DHT22;8903;52.220;20.978;2024-03-02T13:03:58;12.10;99.90
17571;DHT22;8903;52.220;20.978;2024-03-02T13:06:25;12.00;99.90
17571;DHT22;8903;52.220;20.978;2024-03-02T13:08:53;12.00;99.90
17571;DHT22;8903;52.220;20.978;2024-03-02T13:11:21;11.90;99.90
17571;DHT22;8903;52.220;20.978;2024-03-02T13:13:47;11.90;99.90
17571;DHT22;8903;52.220;20.978;2024-03-02T13:16:13;11.90;99.90
17571;DHT22;8903;52.220;20.978;2024-03-02T13:18:41;11.80;99.90
17571;DHT22;8903;52.220;20.978;2024-03-02T13:21:08;11.80;99.90
17571;DHT22;8903;52.220;20.978;2024-03-02T13:23:34;11.80;99.90
17571;DHT22;8903;52.220;20.978;2024-03-02T13:26:00;11.80;99.90
17571;DHT22;8903;52.220;20.978;2024-03-02T13:28:26;11.80;99.90
17571;DHT22;8903;52.220;20.978;2024-03-02T13:30:52;11.80;99.90
17571;DHT22;8903;52.220;20.978;2024-03-02T13:33:18;11.80;99.90
17571;DHT22;8903;52.220;20.978;2024-03-02T13:35:51;11.80;99.90
17571;DHT22;8903;52.220;20.978;2024-03-02T13:38:20;11.80;99.90
17571;DHT22;8903;52.220;20.978;2024-03-02T13:40:49;11.80;99.90
17571;DHT22;8903;52.220;20.978;2024-03-02T13:43:18;11.80;99.90
17571;DHT22;8903;52.220;20.978;2024-03-02T13:45:44;11.70;99.90
17571;DHT22;8903;52.220;20.978;2024-03-02T13:48:10;11.70;99.90
17571;DHT22;8903;52.220;20.978;2024-03-02T13:50:36;11.60;99.90
17571;DHT22;8903;52.220;20.978;2024-03-02T13:53:01;11.60;99.90
17571;DHT22;8903;52.220;20.978;2024-03-02T13:55:28;11.60;99.90
17571;DHT22;8903;52.220;20.978;2024-03-02T13:57:54;11.60;99.90
17571;DHT22;8903;52.220;20.978;2024-03-02T14:00:20;11.50;99.90
17571;DHT22;8903;52.220;20.978;2024-03-02T14:02:46;11.50;99.90
17571;DHT22;8903;52.220;20.978;2024-03-02T14:05:15;11.40;99.90
17571;DHT22;8903;52.220;20.978;2024-03-02T14:07:41;11.40;99.90
17571;DHT22;8903;52.220;20.978;2024-03-02T14:10:07;11.40;99.90
17571;DHT22;8903;52.220;20.978;2024-03-02T14:12:33;11.30;99.90
17571;DHT22;8903;52.220;20.978;2024-03-02T14:14:59;11.20;99.90
17571;DHT22;8903;52.220;20.978;2024-03-02T14:17:27;11.20;99.90
17571;DHT22;8903;52.220;20.978;2024-03-02T14:19:53;11.00;99.90
17571;DHT22;8903;52.220;20.978;2024-03-02T14:22:20;11.00;99.90
17571;DHT22;8903;52.220;20.978;2024-03-02T14:24:45;10.90;99.90
17571;DHT22;8903;52.220;20.978;2024-03-02T14:27:12;10.90;99.90
17571;DHT22;8903;52.220;20.978;2024-03-02T14:29:39;10.90;99.90
17571;DHT22;8903;52.220;20.978;2024-03-02T14:32:06;10.90;99.90
17571;DHT22;8903;52.220;20.978;2024-03-02T14:34:32;10.80;99.90
17571;DHT22;8903;52.220;20.978;2024-03-02T14:36:58;10.80;99.90
17571;DHT22;8903;52.220;20.978;2024-03-02T14:39:27;10.70;99.90
17571;DHT22;8903;52.220;20.978;2024-03-02T14:41:53;10.70;99.90
17571;DHT22;8903;52.220;20.978;2024-03-02T14:44:20;10.60;99.90
17571;DHT22;8903;52.220;20.978;2024-03-02T14:46:49;10.70;99.90
17571;DHT22;8903;52.220;20.978;2024-03-02T14:49:15;10.60;99.90
17571;DHT22;8903;52.220;20.978;2024-03-02T14:51:40;10.60;99.90
17571;DHT22;8903;52.220;20.978;2024-03-02T14:54:06;10.50;99.90
17571;DHT22;8903;52.220;20.978;2024-03-02T14:56:32;10.50;99.90
17571;DHT22;8903;52.220;20.978;2024-03-02T14:58:58;10.40;99.90
17571;DHT22;8903;52.220;20.978;2024-03-02T15:01:24;10.40;99.90
17571;DHT22;8903;52.220;20.978;2024-03-02T15:03:53;10.40;99.90
17571;DHT22;8903;52.220;20.978;2024-03-02T15:06:18;10.30;99.90
17571;DHT22;8903;52.220;20.978;2024-03-02T15:08:44;10.30;99.90
17571;DHT22;8903;52.220;20.978;2024-03-02T15:11:13;10.20;99.90
17571;DHT22;8903;52.220;20.978;2024-03-02T15:13:40;10.20;99.90
17571;DHT22;8903;52.220;20.978;2024-03-02T15:16:05;10.10;99.90
17571;DHT22;8903;52.220;20.978;2024-03-02T15:18:31;10.10;99.90
17571;DHT22;8903;52.220;20.978;2024-03-02T15:20:57;10.00;99.90
17571;DHT22;8903;52.220;20.978;2024-03-02T15:23:23;9.90;99.90
17571;DHT22;8903;52.220;20.978;2024-03-02T15:25:49;9.90;99.90
17571;DHT22;8903;52.220;20.978;2024-03-02T15:28:15;9.90;99.90
17571;DHT22;8903;52.220;20.978;2024-03-02T15:30:41;9.90;99.90
17571;DHT22;8903;52.220;20.978;2024-03-02T15:33:07;9.90;99.90
17571;DHT22;8903;52.220;20.978;2024-03-02T15:35:32;9.90;99.90
17571;DHT22;8903;52.220;20.978;2024-03-02T15:37:58;9.90;99.90
17571;DHT22;8903;52.220;20.978;2024-03-02T15:40:24;9.90;99.90
17571;DHT22;8903;52.220;20.978;2024-03-02T15:42:50;9.90;99.90
17571;DHT22;8903;52.220;20.978;2024-03-02T15:45:16;9.80;99.90
17571;DHT22;8903;52.220;20.978;2024-03-02T15:47:43;9.80;99.90